Grisdale, Washington
Current Conditions -  °F | °C
As of 2:53 PM on Thursday 18 Dec 2014 (Local Time) from KSHN Reporting Station
Light Rain Light Rain  
Wind Chill:   Ceiling: 4900
Heat Index:   Visibility: 5mi
Dew Point:   Wind: 3mph
Humidity: 89%   Direction: 130°SE
Pressure: 29.78"   Gusts: NA
Location:  47.555°N, 123.746°W
Report Text: KSHN 182253Z AUTO 13003KT 5SM -RA BR FEW019 BKN049 OVC070 09/07 A2978 RMK AO2 RAE12B53 SLP087 P0000 T00890072
Loading
Personal Weather Stations






























Interactive Weather Map New forecast layout! Learn more

10-Day Weather Forecast

Advertisements
Track Severe Weather on mobile